sensor_id;sensor_type;location;lat;lon;timestamp;temperature;humidity
67165;SHT31;54093;50.014;19.984;2023-08-12T00:04:28;15.69;73.17
67165;SHT31;54093;50.014;19.984;2023-08-12T00:13:49;15.69;72.68
67165;SHT31;54093;50.014;19.984;2023-08-12T00:23:10;15.56;72.67
67165;SHT31;54093;50.014;19.984;2023-08-12T00:32:31;15.36;73.18
67165;SHT31;54093;50.014;19.984;2023-08-12T00:41:52;15.21;73.62
67165;SHT31;54093;50.014;19.984;2023-08-12T00:51:13;15.07;73.83
67165;SHT31;54093;50.014;19.984;2023-08-12T01:00:34;14.92;73.44
67165;SHT31;54093;50.014;19.984;2023-08-12T01:09:55;14.95;73.04
67165;SHT31;54093;50.014;19.984;2023-08-12T01:19:42;14.87;73.16
67165;SHT31;54093;50.014;19.984;2023-08-12T01:29:03;14.74;73.59
67165;SHT31;54093;50.014;19.984;2023-08-12T01:38:26;14.53;73.74
67165;SHT31;54093;50.014;19.984;2023-08-12T01:47:48;14.49;73.63
67165;SHT31;54093;50.014;19.984;2023-08-12T01:57:11;14.49;73.68
67165;SHT31;54093;50.014;19.984;2023-08-12T02:06:32;14.26;73.39
67165;SHT31;54093;50.014;19.984;2023-08-12T02:15:53;14.21;74.58
67165;SHT31;54093;50.014;19.984;2023-08-12T02:25:14;14.23;74.45
67165;SHT31;54093;50.014;19.984;2023-08-12T02:34:35;14.21;74.40
67165;SHT31;54093;50.014;19.984;2023-08-12T02:43:56;14.02;74.28
67165;SHT31;54093;50.014;19.984;2023-08-12T02:53:17;14.01;74.59
67165;SHT31;54093;50.014;19.984;2023-08-12T03:02:38;13.84;73.95
67165;SHT31;54093;50.014;19.984;2023-08-12T03:11:58;13.77;75.40
67165;SHT31;54093;50.014;19.984;2023-08-12T03:21:22;13.81;75.45
67165;SHT31;54093;50.014;19.984;2023-08-12T03:30:50;13.74;75.04
67165;SHT31;54093;50.014;19.984;2023-08-12T03:40:11;13.57;75.41
67165;SHT31;54093;50.014;19.984;2023-08-12T03:49:32;13.55;75.28
67165;SHT31;54093;50.014;19.984;2023-08-12T03:58:52;13.71;75.27
67165;SHT31;54093;50.014;19.984;2023-08-12T04:08:13;13.89;75.04
67165;SHT31;54093;50.014;19.984;2023-08-12T04:17:34;14.00;75.00
67165;SHT31;54093;50.014;19.984;2023-08-12T04:26:55;14.08;74.76
67165;SHT31;54093;50.014;19.984;2023-08-12T04:36:16;14.13;74.66
67165;SHT31;54093;50.014;19.984;2023-08-12T04:45:37;14.25;73.82
67165;SHT31;54093;50.014;19.984;2023-08-12T04:54:58;14.40;74.02
67165;SHT31;54093;50.014;19.984;2023-08-12T05:04:21;14.53;74.07
67165;SHT31;54093;50.014;19.984;2023-08-12T05:13:42;14.67;75.82
67165;SHT31;54093;50.014;19.984;2023-08-12T05:23:03;14.92;74.06
67165;SHT31;54093;50.014;19.984;2023-08-12T05:32:24;15.27;72.55
67165;SHT31;54093;50.014;19.984;2023-08-12T05:41:45;15.70;69.88
67165;SHT31;54093;50.014;19.984;2023-08-12T05:51:07;16.14;69.14
67165;SHT31;54093;50.014;19.984;2023-08-12T06:00:27;16.63;67.92
67165;SHT31;54093;50.014;19.984;2023-08-12T06:09:49;17.71;69.55
67165;SHT31;54093;50.014;19.984;2023-08-12T06:19:11;18.39;64.51
67165;SHT31;54093;50.014;19.984;2023-08-12T06:28:32;18.91;61.88
67165;SHT31;54093;50.014;19.984;2023-08-12T06:37:53;19.37;61.98
67165;SHT31;54093;50.014;19.984;2023-08-12T06:47:14;19.71;59.79
67165;SHT31;54093;50.014;19.984;2023-08-12T06:56:38;20.79;62.88
67165;SHT31;54093;50.014;19.984;2023-08-12T07:05:58;22.29;60.31
67165;SHT31;54093;50.014;19.984;2023-08-12T07:15:19;22.16;55.62
67165;SHT31;54093;50.014;19.984;2023-08-12T07:24:40;21.72;56.78
67165;SHT31;54093;50.014;19.984;2023-08-12T07:34:01;22.64;60.07
67165;SHT31;54093;50.014;19.984;2023-08-12T07:43:22;23.33;51.19
67165;SHT31;54093;50.014;19.984;2023-08-12T07:52:43;23.77;53.59
67165;SHT31;54093;50.014;19.984;2023-08-12T08:02:04;24.48;49.53
67165;SHT31;54093;50.014;19.984;2023-08-12T08:11:25;24.07;50.67
67165;SHT31;54093;50.014;19.984;2023-08-12T08:20:46;24.91;50.20
67165;SHT31;54093;50.014;19.984;2023-08-12T08:30:08;25.97;51.05
67165;SHT31;54093;50.014;19.984;2023-08-12T08:39:29;26.19;48.84
67165;SHT31;54093;50.014;19.984;2023-08-12T08:48:51;27.95;41.36
67165;SHT31;54093;50.014;19.984;2023-08-12T08:58:12;28.48;43.52
67165;SHT31;54093;50.014;19.984;2023-08-12T09:07:33;28.96;39.60
67165;SHT31;54093;50.014;19.984;2023-08-12T09:16:55;28.73;38.14
67165;SHT31;54093;50.014;19.984;2023-08-12T09:26:18;28.32;39.04
67165;SHT31;54093;50.014;19.984;2023-08-12T09:35:40;29.12;42.83
67165;SHT31;54093;50.014;19.984;2023-08-12T09:45:02;29.52;39.07
67165;SHT31;54093;50.014;19.984;2023-08-12T09:54:26;29.56;39.89
67165;SHT31;54093;50.014;19.984;2023-08-12T10:03:50;29.51;38.92
67165;SHT31;54093;50.014;19.984;2023-08-12T10:13:14;30.31;37.29
67165;SHT31;54093;50.014;19.984;2023-08-12T10:22:36;31.13;36.92
67165;SHT31;54093;50.014;19.984;2023-08-12T10:31:58;30.96;39.41
67165;SHT31;54093;50.014;19.984;2023-08-12T10:41:24;30.62;34.84
67165;SHT31;54093;50.014;19.984;2023-08-12T10:50:48;30.47;38.67
67165;SHT31;54093;50.014;19.984;2023-08-12T11:00:18;30.48;34.51
67165;SHT31;54093;50.014;19.984;2023-08-12T11:09:41;29.72;39.24
67165;SHT31;54093;50.014;19.984;2023-08-12T11:19:03;30.55;38.79
67165;SHT31;54093;50.014;19.984;2023-08-12T11:28:24;30.85;38.94
67165;SHT31;54093;50.014;19.984;2023-08-12T11:37:48;30.28;38.44
67165;SHT31;54093;50.014;19.984;2023-08-12T11:47:09;30.69;35.33
67165;SHT31;54093;50.014;19.984;2023-08-12T11:56:30;30.57;36.86
67165;SHT31;54093;50.014;19.984;2023-08-12T12:06:00;30.58;38.50
67165;SHT31;54093;50.014;19.984;2023-08-12T12:15:21;31.09;35.98
67165;SHT31;54093;50.014;19.984;2023-08-12T12:24:45;31.30;38.53
67165;SHT31;54093;50.014;19.984;2023-08-12T12:34:07;31.44;36.40
67165;SHT31;54093;50.014;19.984;2023-08-12T12:43:30;31.71;34.54
67165;SHT31;54093;50.014;19.984;2023-08-12T12:52:51;31.50;35.06
67165;SHT31;54093;50.014;19.984;2023-08-12T13:02:12;31.50;35.77
67165;SHT31;54093;50.014;19.984;2023-08-12T13:11:33;31.49;35.83
67165;SHT31;54093;50.014;19.984;2023-08-12T13:20:55;31.67;36.94
67165;SHT31;54093;50.014;19.984;2023-08-12T13:30:16;31.73;33.99
67165;SHT31;54093;50.014;19.984;2023-08-12T13:39:37;31.57;34.42
67165;SHT31;54093;50.014;19.984;2023-08-12T13:48:58;31.68;37.95
67165;SHT31;54093;50.014;19.984;2023-08-12T13:58:19;31.78;36.93
67165;SHT31;54093;50.014;19.984;2023-08-12T14:07:40;31.56;35.35
67165;SHT31;54093;50.014;19.984;2023-08-12T14:17:01;31.61;36.19
67165;SHT31;54093;50.014;19.984;2023-08-12T14:26:22;31.56;35.98
67165;SHT31;54093;50.014;19.984;2023-08-12T14:35:43;31.37;36.61
67165;SHT31;54093;50.014;19.984;2023-08-12T14:45:04;31.19;36.06
67165;SHT31;54093;50.014;19.984;2023-08-12T14:54:25;30.81;41.86
67165;SHT31;54093;50.014;19.984;2023-08-12T15:03:46;30.74;39.39
67165;SHT31;54093;50.014;19.984;2023-08-12T15:13:07;30.58;38.39
67165;SHT31;54093;50.014;19.984;2023-08-12T15:22:28;30.16;38.06
67165;SHT31;54093;50.014;19.984;2023-08-12T15:31:49;29.99;39.32
67165;SHT31;54093;50.014;19.984;2023-08-12T15:41:12;29.92;41.05
67165;SHT31;54093;50.014;19.984;2023-08-12T15:50:34;29.63;40.13
67165;SHT31;54093;50.014;19.984;2023-08-12T15:59:55;29.48;44.92
67165;SHT31;54093;50.014;19.984;2023-08-12T16:09:16;29.22;38.90
67165;SHT31;54093;50.014;19.984;2023-08-12T16:18:37;28.80;46.67
67165;SHT31;54093;50.014;19.984;2023-08-12T16:27:58;28.31;40.39
67165;SHT31;54093;50.014;19.984;2023-08-12T16:37:19;27.80;51.69
67165;SHT31;54093;50.014;19.984;2023-08-12T16:46:39;27.40;46.98
67165;SHT31;54093;50.014;19.984;2023-08-12T16:56:00;27.09;53.25
67165;SHT31;54093;50.014;19.984;2023-08-12T17:05:21;26.64;54.69
67165;SHT31;54093;50.014;19.984;2023-08-12T17:14:42;26.19;55.75
67165;SHT31;54093;50.014;19.984;2023-08-12T17:24:03;25.75;57.36
67165;SHT31;54093;50.014;19.984;2023-08-12T17:33:24;25.23;58.79
67165;SHT31;54093;50.014;19.984;2023-08-12T17:42:45;24.84;60.32
67165;SHT31;54093;50.014;19.984;2023-08-12T17:52:05;24.46;61.32
67165;SHT31;54093;50.014;19.984;2023-08-12T18:01:26;24.07;62.36
67165;SHT31;54093;50.014;19.984;2023-08-12T18:10:47;23.71;62.63
67165;SHT31;54093;50.014;19.984;2023-08-12T18:20:08;23.33;62.83
67165;SHT31;54093;50.014;19.984;2023-08-12T18:29:29;23.06;63.27
67165;SHT31;54093;50.014;19.984;2023-08-12T18:38:50;22.68;64.79
67165;SHT31;54093;50.014;19.984;2023-08-12T18:48:11;22.43;65.28
67165;SHT31;54093;50.014;19.984;2023-08-12T18:57:32;22.29;64.82
67165;SHT31;54093;50.014;19.984;2023-08-12T19:06:53;21.97;65.95
67165;SHT31;54093;50.014;19.984;2023-08-12T19:16:14;21.76;66.23
67165;SHT31;54093;50.014;19.984;2023-08-12T19:25:35;21.61;66.47
67165;SHT31;54093;50.014;19.984;2023-08-12T19:34:56;21.45;66.31
67165;SHT31;54093;50.014;19.984;2023-08-12T19:44:17;21.26;66.52
67165;SHT31;54093;50.014;19.984;2023-08-12T19:53:37;21.06;66.39
67165;SHT31;54093;50.014;19.984;2023-08-12T20:02:58;21.03;66.48
67165;SHT31;54093;50.014;19.984;2023-08-12T20:12:19;20.99;65.73
67165;SHT31;54093;50.014;19.984;2023-08-12T20:21:40;20.96;65.82
67165;SHT31;54093;50.014;19.984;2023-08-12T20:31:01;20.65;66.64
67165;SHT31;54093;50.014;19.984;2023-08-12T20:40:22;20.36;67.27
67165;SHT31;54093;50.014;19.984;2023-08-12T20:49:44;20.17;67.55
67165;SHT31;54093;50.014;19.984;2023-08-12T20:59:07;20.00;68.81
67165;SHT31;54093;50.014;19.984;2023-08-12T21:08:28;19.74;68.99
67165;SHT31;54093;50.014;19.984;2023-08-12T21:17:49;19.70;68.14
67165;SHT31;54093;50.014;19.984;2023-08-12T21:27:09;19.54;69.05
67165;SHT31;54093;50.014;19.984;2023-08-12T21:36:30;19.43;69.45
67165;SHT31;54093;50.014;19.984;2023-08-12T21:45:51;19.29;69.64
67165;SHT31;54093;50.014;19.984;2023-08-12T21:55:12;19.09;70.14
67165;SHT31;54093;50.014;19.984;2023-08-12T22:04:34;18.96;70.79
67165;SHT31;54093;50.014;19.984;2023-08-12T22:13:54;18.98;71.09
67165;SHT31;54093;50.014;19.984;2023-08-12T22:23:15;18.83;70.85
67165;SHT31;54093;50.014;19.984;2023-08-12T22:32:36;18.68;70.42
67165;SHT31;54093;50.014;19.984;2023-08-12T22:41:57;18.53;71.45
67165;SHT31;54093;50.014;19.984;2023-08-12T22:51:19;18.41;72.60
67165;SHT31;54093;50.014;19.984;2023-08-12T23:00:40;18.41;71.46
67165;SHT31;54093;50.014;19.984;2023-08-12T23:10:01;18.23;72.04
67165;SHT31;54093;50.014;19.984;2023-08-12T23:19:22;18.03;72.85
67165;SHT31;54093;50.014;19.984;2023-08-12T23:28:43;17.93;72.48
67165;SHT31;54093;50.014;19.984;2023-08-12T23:38:04;17.91;72.89
67165;SHT31;54093;50.014;19.984;2023-08-12T23:47:25;17.92;72.56
67165;SHT31;54093;50.014;19.984;2023-08-12T23:56:45;17.64;73.39
